Flight Track Log - Related Links

Times and Time Zones

All times are in EDT time to prevent confusion due to time zone crossing. See the AWE1525 flight status page for this flight to view local times or setup timezone preferences in your user account.

Time Position Orientation Groundspeed Altitude Reporting Facility
EDT Latitude Longitude Course Direction KTS MPH feet Rate Location/Type
Wed 07:01:55 PM 43.1072 -76.1433 232° Southwest 161 185 1,300  Level Boston Center
Wed 07:03:11 PM 43.0675 -76.2119 232° Southwest 208 239 3,700 2,400 Climbing Boston Center
Wed 07:04:55 PM 42.9708 -76.2972 213° Southwest 280 322 8,500 2,341 Climbing New York Center
Wed 07:05:55 PM 42.9056 -76.3539 212° Southwest 280 322 10,100 1,339 Climbing New York Center
Wed 07:06:56 PM 42.8342 -76.4128 211° Southwest 293 337 11,200 2,319 Climbing New York Center
Wed 07:07:54 PM 42.7542 -76.4792 211° Southwest 317 365 14,700 2,824 Climbing New York Center
Wed 07:08:55 PM 42.6761 -76.5428 211° Southwest 328 377 16,800 2,133 Climbing New York Center
Wed 07:10:54 PM 42.5092 -76.6828 212° Southwest 351 404 21,100 2,145 Climbing New York Center
Wed 07:11:54 PM 42.4222 -76.7533 211° Southwest 363 418 23,200 1,721 Climbing New York Center
Wed 07:12:56 PM 42.3331 -76.8294 212° Southwest 371 427 24,600 1,475 Climbing New York Center
Wed 07:13:56 PM 42.2397 -76.9050 211° Southwest 387 445 26,200 1,600 Climbing New York Center
Wed 07:14:56 PM 42.1375 -76.9906 212° Southwest 387 445 27,800 1,600 Climbing New York Center
Wed 07:15:56 PM 42.0417 -77.0681 211° Southwest 399 459 29,400 1,513 Climbing New York Center
Wed 07:16:55 PM 41.9458 -77.1511 213° Southwest 410 472 30,800 1,714 Climbing New York Center
Wed 07:17:55 PM 41.8497 -77.2308 212° Southwest 410 472 32,800 1,884 Climbing New York Center
Wed 07:18:56 PM 41.7581 -77.3083 212° Southwest 405 466 34,600 1,537 Climbing New York Center
Wed 07:19:56 PM 41.6664 -77.3825 211° Southwest 400 460 35,900 1,119 Climbing New York Center
Wed 07:20:54 PM 41.5747 -77.4567 211° Southwest 400 460 36,800 763 Climbing New York Center
Wed 07:21:54 PM 41.4831 -77.5333 212° Southwest 400 460 37,400 541 Climbing New York Center
Wed 07:22:56 PM 41.3869 -77.6097 211° Southwest 400 460 37,900 221 Climbing New York Center
Wed 07:25:04 PM 41.1772 -77.7803 211° Southwest 401 461 38,100 64 Climbing Cleveland Center
Wed 07:26:04 PM 41.0792 -77.8614 212° Southwest 406 467 38,100  Level Cleveland Center
Wed 07:27:04 PM 40.9789 -77.9400 211° Southwest 412 474 38,100  Level Cleveland Center
Wed 07:28:04 PM 40.8892 -78.0342 218° Southwest 417 480 38,100  Level Cleveland Center
Wed 07:29:04 PM 40.8189 -78.1467 230° Southwest 411 473 38,100  Level Cleveland Center
Wed 07:30:04 PM 40.7439 -78.2592 229° Southwest 406 467 38,100  Level Cleveland Center
Wed 07:31:04 PM 40.6711 -78.3739 230° Southwest 406 467 38,100  Level Cleveland Center
Wed 07:32:04 PM 40.5983 -78.4858 229° Southwest 411 473 38,100  Level Cleveland Center
Wed 07:33:04 PM 40.5253 -78.5972 229° Southwest 411 473 38,100  Level Cleveland Center
Wed 07:34:04 PM 40.4542 -78.7086 230° Southwest 411 473 38,100  Level Cleveland Center
Wed 07:35:04 PM 40.3808 -78.8169 228° Southwest 411 473 38,100  Level Cleveland Center
Wed 07:36:04 PM 40.3094 -78.9306 231° Southwest 411 473 38,100  Level Cleveland Center
Wed 07:37:04 PM 40.2381 -79.0411 230° Southwest 411 473 38,100  Level Cleveland Center
Wed 07:38:04 PM 40.1644 -79.1458 227° Southwest 411 473 38,100  Level Cleveland Center
Wed 07:39:04 PM 40.0928 -79.2561 230° Southwest 411 473 38,100  Level Cleveland Center
Wed 07:40:04 PM 40.0231 -79.3631 230° Southwest 411 473 38,100  Level Cleveland Center
Wed 07:41:04 PM 39.9514 -79.4728 230° Southwest 405 466 38,100  Level Cleveland Center
Wed 07:42:04 PM 39.8772 -79.5822 229° Southwest 411 473 38,100  Level Cleveland Center
Wed 07:43:04 PM 39.8031 -79.6914 229° Southwest 411 473 38,100  Level Cleveland Center
Wed 07:44:04 PM 39.7308 -79.7975 229° Southwest 411 473 38,100  Level Cleveland Center
Wed 07:45:04 PM 39.6608 -79.9036 229° Southwest 406 467 38,100  Level Cleveland Center
Wed 07:46:04 PM 39.5842 -80.0119 227° Southwest 406 467 38,100 32 Level Cleveland Center
Wed 07:48:14 PM 39.4292 -80.2325 228° Southwest 402 463 38,200 31 Climbing Indianapolis Center
Wed 07:49:15 PM 39.3550 -80.3369 227° Southwest 397 457 38,200 -49 Level Indianapolis Center
Wed 07:50:17 PM 39.2817 -80.4400 227° Southwest 389 448 38,100 -97 Descending Indianapolis Center
Wed 07:51:19 PM 39.2100 -80.5417 228° Southwest 384 442 38,000  Descending Indianapolis Center
Wed 07:52:21 PM 39.1231 -80.6617 227° Southwest 382 440 38,100 49 Climbing Indianapolis Center
Wed 07:53:22 PM 39.0511 -80.7636 228° Southwest 383 441 38,100  Level Indianapolis Center
Wed 07:54:24 PM 38.9778 -80.8656 227° Southwest 386 444 38,100  Level Indianapolis Center
Wed 07:55:26 PM 38.9053 -80.9717 229° Southwest 393 452 38,100 49 Level Indianapolis Center
Wed 07:56:27 PM 38.8319 -81.0781 229° Southwest 396 456 38,200  Climbing Indianapolis Center
Wed 07:57:29 PM 38.7586 -81.1844 229° Southwest 396 456 38,100 -48 Descending Indianapolis Center
Wed 07:58:31 PM 38.6844 -81.2903 228° Southwest 395 455 38,100 -48 Level Indianapolis Center
Wed 07:59:33 PM 38.6097 -81.3964 228° Southwest 394 453 38,000 -878 Descending Indianapolis Center
Wed 08:00:34 PM 38.5236 -81.4881 220° Southwest 399 459 36,300 -927 Descending Indianapolis Center
Wed 08:01:36 PM 38.4097 -81.5258 195° South 422 486 36,100 -97 Descending Indianapolis Center
Wed 08:02:38 PM 38.2950 -81.5611 194° South 423 487 36,100  Level Indianapolis Center
Wed 08:03:39 PM 38.1650 -81.6025 194° South 400 460 36,100  Level Indianapolis Center
Wed 08:04:41 PM 38.0542 -81.6367 194° South 405 466 36,100 -194 Level Indianapolis Center
Wed 08:05:43 PM 37.9447 -81.6717 194° South 406 467 35,700 -829 Descending Indianapolis Center
Wed 08:06:44 PM 37.8264 -81.7075 193° South 403 464 34,400 -1,317 Descending Indianapolis Center
Wed 08:07:46 PM 37.7111 -81.7431 194° South 426 490 33,000 -1,355 Descending Indianapolis Center
Wed 08:08:48 PM 37.5883 -81.7822 194° South 447 514 31,600 -1,366 Descending Indianapolis Center
Wed 08:09:49 PM 37.4636 -81.8192 193° South 455 524 30,200 -1,366 Descending Indianapolis Center
Wed 08:10:51 PM 37.3378 -81.8572 194° South 458 527 28,800 -1,016 Descending Indianapolis Center
Wed 08:11:53 PM 37.2175 -81.8939 194° South 447 514 28,100 -341 Descending Indianapolis Center
Wed 08:12:54 PM 37.0903 -81.9058 184° South 466 536 28,100 -244 Level Indianapolis Center
Wed 08:13:56 PM 36.9392 -81.8917 176° South 464 534 27,600 -732 Descending Indianapolis Center
Wed 08:14:57 PM 36.8125 -81.8625 170° South 463 533 26,600 -915 Descending Indianapolis Center
Wed 08:15:54 PM 36.7058 -81.8406 171° South 464 534 25,800 -923 Descending Atlanta Center
Wed 08:16:54 PM 36.5844 -81.8103 169° South 464 534 24,800 -850 Descending Atlanta Center
Wed 08:17:54 PM 36.4631 -81.7825 170° South 448 516 24,100 -650 Descending Atlanta Center
Wed 08:18:54 PM 36.3417 -81.7578 171° South 448 516 23,500 -1,500 Descending Atlanta Center
Wed 08:19:54 PM 36.2242 -81.7275 168° South 443 510 21,100 -2,350 Descending Atlanta Center
Wed 08:20:54 PM 36.1069 -81.7000 169° South 443 510 18,800 -2,450 Descending Atlanta Center
Wed 08:21:54 PM 35.9897 -81.6753 170° South 425 489 16,200 -2,600 Descending Atlanta Center
Wed 08:22:54 PM 35.8747 -81.6683 177° South 425 489 13,600 -2,350 Descending Atlanta Center
Wed 08:23:54 PM 35.7661 -81.6664 179° South 403 464 11,500 -1,486 Descending Atlanta Center
Wed 08:24:39 PM 35.6825 -81.6558 174° South 360 414 11,000 -283 Descending Atlanta Center
Wed 08:25:40 PM 35.6044 -81.6047 152° Southeast 297 342 11,000  Level Atlanta Center
Wed 08:26:41 PM 35.5589 -81.5167 122° Southeast 303 349 11,000 -362 Level Atlanta Center
Wed 08:27:36 PM 35.5361 -81.4331 108° East 295 339 10,300 -1,230 Descending Atlanta Center
Wed 08:28:43 PM 35.5447 -81.3383 84° East 245 282 8,500 -1,587 Descending Atlanta Center
Wed 08:29:37 PM 35.5533 -81.2642 82° East 246 283 7,100 -836 Descending Atlanta Center
Wed 08:30:45 PM 35.5594 -81.1667 86° East 240 276 6,800 -489 Descending Atlanta Center
Wed 08:31:52 PM 35.5639 -81.0850 86° East 213 245 6,000 -694 Descending Atlanta Center
Wed 08:32:46 PM 35.5706 -81.0183 83° East 198 228 5,400 -492 Descending Atlanta Center
Wed 08:33:54 PM 35.5197 -80.9922 157° South 147 169 5,000 -207 Descending Atlanta Center
Wed 08:34:42 PM 35.4781 -80.9911 179° South 173 199 5,000 -209 Level Atlanta Center
Wed 08:35:49 PM 35.4258 -80.9881 177° South 174 200 4,600 -656 Descending Atlanta Center
Wed 08:36:50 PM 35.3778 -80.9847 177° South 172 198 3,600 -885 Descending Atlanta Center
Wed 08:37:51 PM 35.3297 -80.9789 174° South 172 198 2,800 -738 Descending Atlanta Center
Wed 08:38:52 PM 35.2919 -80.9750 175° South 127 146 2,100 -672 Descending Atlanta Center
Wed 08:39:47 PM 35.2606 -80.9739 178° South 118 136 1,500 -655 Descending Atlanta Center
Wed 08:41:00 PM 35.2137 -80.9491 190° South  Level Estimated
Wed 08:48:00 PM 35.2137 -80.9491 15° North  Level Estimated

Login

Don't have an account? Register now (free) for customized features, flight alerts, and more!